createdAt,value
2018-08-13T00:01:24.249Z,23.30
2018-08-13T00:03:52.490Z,23.30
2018-08-13T00:06:20.758Z,23.30
2018-08-13T00:08:49.024Z,23.30
2018-08-13T00:11:17.260Z,23.30
2018-08-13T00:13:45.782Z,23.30
2018-08-13T00:16:14.041Z,23.20
2018-08-13T00:18:42.280Z,23.30
2018-08-13T00:21:10.983Z,23.20
2018-08-13T00:23:39.464Z,23.20
2018-08-13T00:26:07.704Z,23.20
2018-08-13T00:28:35.992Z,23.20
2018-08-13T00:31:05.218Z,23.20
2018-08-13T00:33:33.680Z,23.20
2018-08-13T00:36:01.853Z,23.20
2018-08-13T00:38:30.844Z,23.10
2018-08-13T00:40:59.095Z,23.20
2018-08-13T00:43:27.253Z,23.10
2018-08-13T00:45:55.572Z,23.10
2018-08-13T00:48:24.318Z,23.10
2018-08-13T00:50:53.035Z,23.10
2018-08-13T00:53:21.249Z,23.10
2018-08-13T00:55:50.375Z,23.10
2018-08-13T00:58:18.589Z,23.10
2018-08-13T01:00:46.818Z,23.10
2018-08-13T01:03:15.069Z,23.10
2018-08-13T01:05:43.288Z,23.10
2018-08-13T01:08:11.496Z,23.20
2018-08-13T01:10:39.763Z,23.20
2018-08-13T01:13:07.944Z,23.20
2018-08-13T01:15:36.158Z,23.20
2018-08-13T01:18:05.114Z,23.10
2018-08-13T01:20:33.414Z,23.20
2018-08-13T01:23:01.717Z,23.20
2018-08-13T01:25:29.916Z,23.20
2018-08-13T01:27:58.168Z,23.20
2018-08-13T01:30:26.366Z,23.10
2018-08-13T01:32:54.729Z,23.00
2018-08-13T01:35:22.941Z,23.10
2018-08-13T01:37:51.150Z,23.10
2018-08-13T01:40:19.484Z,23.00
2018-08-13T01:42:47.697Z,23.10
2018-08-13T01:45:15.979Z,23.00
2018-08-13T01:47:44.171Z,23.00
2018-08-13T01:50:13.092Z,23.00
2018-08-13T01:52:41.624Z,23.00
2018-08-13T01:55:10.586Z,23.00
2018-08-13T01:57:38.786Z,22.90
2018-08-13T02:00:12.784Z,22.80
2018-08-13T02:02:41.004Z,22.80
2018-08-13T02:05:09.200Z,22.80
2018-08-13T02:07:37.772Z,22.80
2018-08-13T02:10:07.006Z,22.70
2018-08-13T02:12:35.627Z,22.70
2018-08-13T02:15:04.748Z,22.70
2018-08-13T02:17:33.053Z,22.70
2018-08-13T02:20:01.293Z,22.70
2018-08-13T02:22:29.508Z,22.70
2018-08-13T02:24:57.732Z,22.70
2018-08-13T02:27:25.961Z,22.70
2018-08-13T02:29:54.193Z,22.70
2018-08-13T02:32:22.400Z,22.60
2018-08-13T02:34:51.765Z,22.60
2018-08-13T02:37:19.986Z,22.60
2018-08-13T02:39:48.282Z,22.60
2018-08-13T02:42:16.534Z,22.60
2018-08-13T02:44:44.787Z,22.60
2018-08-13T02:47:12.981Z,22.50
2018-08-13T02:49:41.292Z,22.50
2018-08-13T02:52:09.499Z,22.50
2018-08-13T02:54:37.732Z,22.40
2018-08-13T02:57:06.771Z,22.40
2018-08-13T02:59:35.285Z,22.40
2018-08-13T03:02:03.818Z,22.40
2018-08-13T03:04:32.024Z,22.30
2018-08-13T03:07:00.392Z,22.30
2018-08-13T03:09:28.606Z,22.30
2018-08-13T03:11:57.201Z,22.30
2018-08-13T03:14:25.629Z,22.30
2018-08-13T03:16:53.826Z,22.20
2018-08-13T03:19:22.102Z,22.30
2018-08-13T03:21:50.344Z,22.30
2018-08-13T03:24:18.942Z,22.20
2018-08-13T03:26:47.225Z,22.20
2018-08-13T03:29:15.752Z,22.20
2018-08-13T03:31:44.079Z,22.20
2018-08-13T03:34:12.636Z,22.10
2018-08-13T03:36:40.906Z,22.10
2018-08-13T03:39:10.917Z,22.10
2018-08-13T03:41:41.200Z,22.10
2018-08-13T03:44:10.508Z,22.10
2018-08-13T03:46:39.021Z,22.10
2018-08-13T03:49:07.659Z,22.10
2018-08-13T03:51:36.025Z,22.10
2018-08-13T03:54:04.350Z,22.10
2018-08-13T03:56:33.389Z,22.10
2018-08-13T03:59:01.660Z,22.10
2018-08-13T04:01:30.165Z,22.10
2018-08-13T04:03:58.418Z,22.10
2018-08-13T04:06:26.695Z,22.10
2018-08-13T04:08:55.068Z,22.10
2018-08-13T04:11:23.916Z,22.00
2018-08-13T04:13:52.212Z,22.00
2018-08-13T04:16:20.517Z,22.00
2018-08-13T04:18:50.716Z,22.00
2018-08-13T04:21:19.172Z,22.00
2018-08-13T04:23:47.340Z,22.00
2018-08-13T04:26:15.577Z,22.00
2018-08-13T04:28:43.772Z,22.00
2018-08-13T04:31:12.114Z,22.00
2018-08-13T04:33:40.429Z,21.90
2018-08-13T04:36:08.732Z,22.00
2018-08-13T04:38:36.994Z,22.00
2018-08-13T04:41:05.321Z,22.10
2018-08-13T04:43:34.273Z,22.10
2018-08-13T04:46:02.538Z,22.10
2018-08-13T04:48:31.180Z,22.10
2018-08-13T04:50:59.456Z,22.20
2018-08-13T04:53:27.660Z,22.20
2018-08-13T04:55:56.646Z,22.20
2018-08-13T04:58:24.900Z,22.20
2018-08-13T05:00:53.160Z,22.20
2018-08-13T05:03:21.740Z,22.30
2018-08-13T05:05:50.099Z,22.30
2018-08-13T05:08:18.821Z,22.30
2018-08-13T05:10:47.158Z,22.40
2018-08-13T05:13:15.417Z,22.40
2018-08-13T05:15:43.921Z,22.40
2018-08-13T05:18:12.414Z,22.40
2018-08-13T05:20:41.498Z,22.40
2018-08-13T05:23:10.067Z,22.40
2018-08-13T05:25:38.340Z,22.40
2018-08-13T05:28:06.672Z,22.50
2018-08-13T05:30:35.136Z,22.50
2018-08-13T05:33:04.131Z,22.50
2018-08-13T05:35:32.456Z,22.50
2018-08-13T05:38:01.109Z,22.50
2018-08-13T05:40:29.327Z,22.50
2018-08-13T05:42:58.211Z,22.50
2018-08-13T05:45:26.755Z,22.50
2018-08-13T05:47:55.069Z,22.60
2018-08-13T05:50:23.349Z,22.60
2018-08-13T05:52:51.777Z,22.60
2018-08-13T05:55:20.173Z,22.70
2018-08-13T05:57:48.634Z,22.70
2018-08-13T06:00:16.943Z,22.70
2018-08-13T06:02:45.346Z,22.70
2018-08-13T06:05:14.069Z,22.70
2018-08-13T06:07:43.412Z,22.80
2018-08-13T06:10:12.507Z,22.80
2018-08-13T06:12:41.720Z,22.80
2018-08-13T06:15:12.041Z,22.80
2018-08-13T06:17:40.413Z,22.80
2018-08-13T06:20:11.435Z,22.80
2018-08-13T06:22:42.901Z,22.80
2018-08-13T06:25:12.538Z,22.90
2018-08-13T06:27:40.798Z,22.90
2018-08-13T06:30:11.582Z,23.00
2018-08-13T06:32:41.110Z,23.10
2018-08-13T06:35:10.269Z,23.10
2018-08-13T06:37:39.064Z,23.20
2018-08-13T06:40:07.962Z,23.20
2018-08-13T06:42:36.145Z,23.20
2018-08-13T06:45:06.709Z,23.30
2018-08-13T06:47:34.966Z,23.30
2018-08-13T06:50:04.096Z,23.30
2018-08-13T06:52:32.447Z,23.40
2018-08-13T06:55:00.623Z,23.40
2018-08-13T06:57:29.048Z,23.40
2018-08-13T06:59:58.781Z,23.40
2018-08-13T07:02:27.267Z,23.50
2018-08-13T07:04:55.603Z,23.50
2018-08-13T07:07:24.180Z,23.50
2018-08-13T07:09:52.521Z,23.60
2018-08-13T07:12:21.300Z,23.60
2018-08-13T07:14:49.588Z,23.60
2018-08-13T07:17:18.057Z,23.70
2018-08-13T07:19:46.373Z,23.70
2018-08-13T07:22:14.782Z,23.70
2018-08-13T07:24:43.682Z,23.80
2018-08-13T07:27:12.640Z,23.80
2018-08-13T07:29:42.213Z,23.80
2018-08-13T07:32:10.496Z,23.80
2018-08-13T07:34:39.231Z,23.90
2018-08-13T07:37:07.524Z,23.90
2018-08-13T07:39:35.748Z,24.00
2018-08-13T07:42:04.111Z,24.00
2018-08-13T07:44:32.558Z,24.10
2018-08-13T07:47:01.084Z,24.10
2018-08-13T07:49:29.343Z,24.20
2018-08-13T07:51:58.082Z,24.20
2018-08-13T07:54:26.359Z,24.30
2018-08-13T07:56:54.587Z,24.30
2018-08-13T07:59:22.834Z,24.40
2018-08-13T08:01:51.289Z,24.40
2018-08-13T08:04:19.773Z,24.40
2018-08-13T08:06:50.665Z,24.40
2018-08-13T08:09:19.114Z,24.40
2018-08-13T08:11:47.396Z,24.40
2018-08-13T08:14:16.930Z,24.50
2018-08-13T08:16:45.525Z,24.50
2018-08-13T08:19:14.095Z,24.60
2018-08-13T08:21:42.572Z,24.60
2018-08-13T08:24:11.102Z,24.60
2018-08-13T08:26:39.337Z,24.70
2018-08-13T08:29:08.516Z,24.80
2018-08-13T08:31:36.815Z,24.90
2018-08-13T08:34:05.088Z,25.00
2018-08-13T08:36:34.801Z,25.10
2018-08-13T08:39:03.450Z,25.20
2018-08-13T08:41:31.844Z,25.40
2018-08-13T08:44:00.244Z,25.50
2018-08-13T08:46:29.294Z,25.60
2018-08-13T08:48:57.659Z,25.60
2018-08-13T08:51:26.269Z,25.50
2018-08-13T08:53:54.956Z,25.50
2018-08-13T08:56:23.543Z,25.50
2018-08-13T08:58:51.803Z,25.40
2018-08-13T09:01:20.504Z,25.40
2018-08-13T09:03:49.315Z,25.40
2018-08-13T09:06:17.515Z,25.40
2018-08-13T09:08:45.756Z,25.40
2018-08-13T09:11:14.071Z,25.40
2018-08-13T09:13:42.422Z,25.40
2018-08-13T09:16:11.107Z,25.40
2018-08-13T09:18:50.860Z,25.50
2018-08-13T09:21:29.578Z,25.50
2018-08-13T09:24:09.753Z,25.60
2018-08-13T09:26:49.603Z,25.60
2018-08-13T09:29:29.895Z,25.70
2018-08-13T09:32:20.705Z,25.70
2018-08-13T09:35:12.105Z,25.80
2018-08-13T09:37:40.463Z,25.80
2018-08-13T09:40:09.564Z,25.80
2018-08-13T09:42:38.221Z,25.80
2018-08-13T09:45:08.113Z,25.90
2018-08-13T09:47:36.971Z,26.00
2018-08-13T09:50:07.852Z,26.10
2018-08-13T09:52:36.140Z,26.20
2018-08-13T09:55:05.134Z,26.20
2018-08-13T09:57:33.436Z,26.30
2018-08-13T10:00:01.939Z,26.30
2018-08-13T10:02:30.208Z,26.40
2018-08-13T10:04:58.823Z,26.50
2018-08-13T10:07:27.238Z,26.50
2018-08-13T10:09:55.820Z,26.50
2018-08-13T10:12:24.209Z,26.50
2018-08-13T10:14:52.877Z,26.50
2018-08-13T10:17:21.169Z,26.50
2018-08-13T10:19:49.509Z,26.50
2018-08-13T10:22:17.839Z,26.50
2018-08-13T10:24:46.091Z,26.60
2018-08-13T10:27:14.376Z,26.70
2018-08-13T10:29:42.699Z,26.80
2018-08-13T10:32:11.607Z,26.90
2018-08-13T10:34:39.928Z,27.10
2018-08-13T10:37:09.663Z,27.20
2018-08-13T10:39:37.939Z,27.20
2018-08-13T10:42:06.462Z,27.30
2018-08-13T10:44:34.904Z,27.40
2018-08-13T10:47:03.172Z,27.50
2018-08-13T10:49:32.534Z,27.50
2018-08-13T10:52:01.334Z,27.50
2018-08-13T10:54:31.359Z,27.50
2018-08-13T10:57:00.043Z,27.40
2018-08-13T10:59:28.534Z,27.30
2018-08-13T11:01:56.867Z,27.30
2018-08-13T11:04:25.235Z,27.40
2018-08-13T11:06:53.870Z,27.50
2018-08-13T11:09:22.116Z,27.60
2018-08-13T11:11:51.377Z,27.60
2018-08-13T11:14:19.627Z,27.70
2018-08-13T11:16:48.036Z,27.70
2018-08-13T11:19:16.508Z,27.60
2018-08-13T11:21:44.789Z,27.60
2018-08-13T11:24:12.982Z,27.50
2018-08-13T11:26:41.352Z,27.50
2018-08-13T11:29:09.644Z,27.50
2018-08-13T11:31:37.983Z,27.50
2018-08-13T11:34:08.817Z,27.60
2018-08-13T11:36:37.094Z,27.60
2018-08-13T11:39:09.039Z,27.60
2018-08-13T11:41:37.529Z,27.70
2018-08-13T11:44:05.878Z,27.70
2018-08-13T11:46:34.414Z,27.80
2018-08-13T11:49:03.382Z,27.90
2018-08-13T11:51:32.123Z,28.00
2018-08-13T11:54:00.758Z,28.00
2018-08-13T11:56:29.342Z,28.10
2018-08-13T11:58:58.042Z,28.10
2018-08-13T12:01:27.284Z,28.10
2018-08-13T12:03:56.007Z,28.10
2018-08-13T12:06:24.459Z,28.10
2018-08-13T12:08:52.792Z,28.10
2018-08-13T12:11:21.325Z,28.10
2018-08-13T12:13:49.840Z,28.10
2018-08-13T12:16:18.490Z,28.10
2018-08-13T12:18:46.838Z,28.20
2018-08-13T12:21:15.101Z,28.40
2018-08-13T12:23:44.280Z,28.60
2018-08-13T12:26:12.618Z,28.80
2018-08-13T12:28:41.104Z,28.90
2018-08-13T12:31:09.342Z,29.10
2018-08-13T12:33:37.762Z,29.20
2018-08-13T12:36:06.005Z,29.20
2018-08-13T12:38:34.265Z,29.10
2018-08-13T12:41:02.565Z,29.00
2018-08-13T12:43:30.823Z,28.90
2018-08-13T12:45:59.552Z,28.80
2018-08-13T12:48:27.864Z,28.80
2018-08-13T12:50:56.258Z,28.80
2018-08-13T12:53:25.095Z,28.80
2018-08-13T12:55:53.512Z,28.80
2018-08-13T12:58:21.913Z,28.80
2018-08-13T13:00:55.483Z,28.80
2018-08-13T13:03:23.864Z,28.90
2018-08-13T13:05:53.293Z,28.90
2018-08-13T13:08:21.711Z,29.00
2018-08-13T13:10:50.090Z,29.00
2018-08-13T13:13:18.475Z,29.10
2018-08-13T13:15:46.754Z,29.10
2018-08-13T13:18:15.270Z,29.20
2018-08-13T13:20:43.650Z,29.30
2018-08-13T13:23:11.915Z,29.40
2018-08-13T13:25:40.364Z,29.40
2018-08-13T13:28:08.690Z,29.50
2018-08-13T13:30:37.094Z,29.50
2018-08-13T13:33:06.169Z,29.50
2018-08-13T13:35:35.011Z,29.50
2018-08-13T13:38:03.347Z,29.50
2018-08-13T13:40:32.647Z,29.50
2018-08-13T13:43:00.837Z,29.50
2018-08-13T13:45:29.305Z,29.40
2018-08-13T13:47:57.852Z,29.40
2018-08-13T13:50:26.246Z,29.30
2018-08-13T13:52:54.545Z,29.30
2018-08-13T13:55:23.092Z,29.20
2018-08-13T13:57:51.377Z,29.10
2018-08-13T14:00:21.179Z,29.00
2018-08-13T14:02:52.716Z,29.10
2018-08-13T14:05:21.381Z,29.00
2018-08-13T14:07:50.007Z,28.90
2018-08-13T14:10:20.719Z,28.90
2018-08-13T14:12:49.589Z,28.90
2018-08-13T14:15:19.274Z,28.90
2018-08-13T14:17:47.645Z,28.90
2018-08-13T14:20:16.093Z,28.80
2018-08-13T14:22:44.584Z,28.80
2018-08-13T14:25:13.996Z,28.80
2018-08-13T14:27:42.412Z,28.80
2018-08-13T14:30:17.277Z,28.80
2018-08-13T14:32:46.499Z,28.80
2018-08-13T14:35:15.343Z,28.80
2018-08-13T14:37:43.864Z,28.80
2018-08-13T14:40:13.235Z,28.80
2018-08-13T14:42:42.129Z,28.70
2018-08-13T14:45:12.304Z,28.70
2018-08-13T14:47:42.430Z,28.60
2018-08-13T14:50:11.813Z,28.60
2018-08-13T14:52:41.267Z,28.50
2018-08-13T14:55:09.680Z,28.50
2018-08-13T14:57:38.034Z,28.50
2018-08-13T15:00:19.268Z,28.40
2018-08-13T15:02:47.954Z,28.30
2018-08-13T15:05:16.469Z,28.20
2018-08-13T15:07:45.024Z,28.10
2018-08-13T15:10:15.300Z,28.00
2018-08-13T15:12:44.001Z,28.00
2018-08-13T15:15:13.179Z,28.00
2018-08-13T15:17:41.712Z,27.90
2018-08-13T15:20:15.454Z,27.80
2018-08-13T15:22:43.897Z,27.80
2018-08-13T15:25:12.158Z,27.70
2018-08-13T15:27:41.852Z,27.60
2018-08-13T15:30:13.152Z,27.60
2018-08-13T15:32:42.153Z,27.50
2018-08-13T15:35:11.355Z,27.40
2018-08-13T15:37:39.661Z,27.40
2018-08-13T15:40:09.346Z,27.30
2018-08-13T15:42:38.309Z,27.30
2018-08-13T15:45:11.237Z,27.20
2018-08-13T15:47:40.985Z,27.10
2018-08-13T15:50:16.297Z,27.10
2018-08-13T15:52:45.254Z,27.10
2018-08-13T15:55:14.040Z,27.00
2018-08-13T15:57:42.960Z,27.00
2018-08-13T16:00:13.456Z,26.90
2018-08-13T16:02:42.216Z,26.90
2018-08-13T16:05:11.339Z,26.80
2018-08-13T16:07:39.727Z,26.90
2018-08-13T16:10:10.839Z,26.80
2018-08-13T16:12:39.319Z,26.70
2018-08-13T16:15:08.242Z,26.70
2018-08-13T16:17:37.579Z,26.70
2018-08-13T16:20:08.499Z,26.70
2018-08-13T16:22:37.039Z,26.80
2018-08-13T16:25:06.423Z,26.80
2018-08-13T16:27:34.701Z,26.80
2018-08-13T16:30:03.170Z,26.80
2018-08-13T16:32:31.350Z,26.70
2018-08-13T16:34:59.659Z,26.60
2018-08-13T16:37:27.959Z,26.60
2018-08-13T16:39:56.706Z,26.60
2018-08-13T16:42:25.064Z,26.50
2018-08-13T16:44:53.774Z,26.50
2018-08-13T16:47:22.167Z,26.50
2018-08-13T16:49:50.835Z,26.50
2018-08-13T16:52:19.313Z,26.50
2018-08-13T16:54:48.070Z,26.40
2018-08-13T16:57:17.540Z,26.40
2018-08-13T16:59:46.072Z,26.40
2018-08-13T17:02:14.480Z,26.40
2018-08-13T17:04:42.798Z,26.40
2018-08-13T17:07:11.118Z,26.40
2018-08-13T17:09:39.723Z,26.40
2018-08-13T17:12:08.099Z,26.40
2018-08-13T17:14:36.593Z,26.50
2018-08-13T17:17:05.905Z,26.50
2018-08-13T17:19:34.431Z,26.50
2018-08-13T17:22:03.117Z,26.50
2018-08-13T17:24:31.520Z,26.60
2018-08-13T17:26:59.873Z,26.60
2018-08-13T17:29:28.339Z,26.60
2018-08-13T17:31:56.660Z,26.70
2018-08-13T17:34:25.051Z,26.70
2018-08-13T17:36:53.319Z,26.70
2018-08-13T17:39:21.635Z,26.60
2018-08-13T17:41:50.692Z,26.70
2018-08-13T17:44:19.237Z,26.70
2018-08-13T17:46:47.703Z,26.60
2018-08-13T17:49:16.002Z,26.60
2018-08-13T17:51:44.437Z,26.50
2018-08-13T17:54:13.120Z,26.50
2018-08-13T17:56:42.068Z,26.40
2018-08-13T17:59:13.282Z,26.40
2018-08-13T18:01:41.913Z,26.30
2018-08-13T18:04:10.434Z,26.30
2018-08-13T18:06:39.353Z,26.20
2018-08-13T18:09:10.408Z,26.20
2018-08-13T18:11:39.988Z,26.20
2018-08-13T18:14:08.834Z,26.20
2018-08-13T18:16:37.271Z,26.10
2018-08-13T18:19:05.834Z,26.10
2018-08-13T18:21:34.260Z,26.10
2018-08-13T18:24:02.661Z,26.10
2018-08-13T18:26:31.164Z,26.10
2018-08-13T18:28:59.560Z,26.10
2018-08-13T18:31:28.656Z,26.00
2018-08-13T18:33:57.157Z,26.00
2018-08-13T18:36:25.603Z,25.90
2018-08-13T18:38:54.019Z,25.90
2018-08-13T18:41:22.451Z,25.80
2018-08-13T18:43:50.712Z,25.80
2018-08-13T18:46:19.215Z,25.80
2018-08-13T18:48:47.651Z,25.70
2018-08-13T18:51:17.615Z,25.70
2018-08-13T18:53:46.174Z,25.70
2018-08-13T18:56:14.999Z,25.70
2018-08-13T18:58:43.445Z,25.60
2018-08-13T19:01:11.891Z,25.60
2018-08-13T19:03:40.431Z,25.60
2018-08-13T19:06:09.150Z,25.60
2018-08-13T19:08:37.513Z,25.70
2018-08-13T19:11:06.016Z,25.70
2018-08-13T19:13:34.361Z,25.70
2018-08-13T19:16:02.747Z,25.60
2018-08-13T19:18:31.129Z,25.60
2018-08-13T19:20:59.596Z,25.60
2018-08-13T19:23:28.884Z,25.60
2018-08-13T19:25:57.374Z,25.60
2018-08-13T19:28:26.286Z,25.60
2018-08-13T19:30:54.622Z,25.60
2018-08-13T19:33:23.155Z,25.60
2018-08-13T19:35:51.604Z,25.60
2018-08-13T19:38:19.980Z,25.60
2018-08-13T19:40:48.499Z,25.50
2018-08-13T19:43:16.897Z,25.50
2018-08-13T19:45:45.785Z,25.50
2018-08-13T19:48:14.103Z,25.50
2018-08-13T19:50:42.504Z,25.50
2018-08-13T19:53:10.954Z,25.50
2018-08-13T19:55:39.285Z,25.50
2018-08-13T19:58:07.567Z,25.40
2018-08-13T20:00:36.166Z,25.30
2018-08-13T20:03:04.991Z,25.30
2018-08-13T20:05:33.480Z,25.30
2018-08-13T20:08:01.918Z,25.30
2018-08-13T20:10:30.399Z,25.30
2018-08-13T20:12:58.757Z,25.40
2018-08-13T20:15:27.235Z,25.40
2018-08-13T20:17:55.905Z,25.20
2018-08-13T20:20:24.442Z,25.20
2018-08-13T20:22:52.898Z,25.20
2018-08-13T20:25:21.593Z,25.30
2018-08-13T20:27:50.524Z,25.30
2018-08-13T20:30:20.228Z,25.30
2018-08-13T20:32:49.690Z,25.30
2018-08-13T20:35:18.261Z,25.20
2018-08-13T20:37:46.656Z,25.20
2018-08-13T20:40:16.664Z,25.20
2018-08-13T20:42:45.818Z,25.10
2018-08-13T20:45:17.348Z,25.10
2018-08-13T20:47:46.487Z,25.10
2018-08-13T20:50:16.692Z,25.10
2018-08-13T20:52:45.697Z,25.10
2018-08-13T20:55:18.353Z,25.00
2018-08-13T20:57:47.470Z,25.00
2018-08-13T21:00:18.185Z,25.00
2018-08-13T21:02:47.662Z,25.00
2018-08-13T21:05:17.477Z,25.00
2018-08-13T21:07:46.556Z,25.00
2018-08-13T21:10:18.926Z,25.00
2018-08-13T21:12:47.211Z,25.00
2018-08-13T21:15:16.191Z,25.00
2018-08-13T21:17:44.656Z,25.00
2018-08-13T21:20:18.249Z,25.00
2018-08-13T21:22:46.606Z,24.90
2018-08-13T21:25:15.113Z,24.90
2018-08-13T21:27:43.978Z,24.90
2018-08-13T21:30:12.310Z,24.90
2018-08-13T21:32:41.546Z,24.80
2018-08-13T21:35:10.263Z,24.70
2018-08-13T21:37:38.765Z,24.60
2018-08-13T21:40:08.912Z,24.50
2018-08-13T21:42:37.398Z,24.50
2018-08-13T21:45:05.884Z,24.50
2018-08-13T21:47:34.715Z,24.40
2018-08-13T21:50:03.192Z,24.30
2018-08-13T21:52:31.507Z,24.40
2018-08-13T21:55:00.105Z,24.40
2018-08-13T21:57:28.383Z,24.40
2018-08-13T21:59:56.864Z,24.40
2018-08-13T22:02:25.361Z,24.40
2018-08-13T22:04:54.374Z,24.30
2018-08-13T22:07:22.660Z,24.30
2018-08-13T22:09:50.964Z,24.30
2018-08-13T22:12:20.468Z,24.40
2018-08-13T22:14:49.305Z,24.40
2018-08-13T22:17:17.526Z,24.30
2018-08-13T22:19:45.839Z,24.30
2018-08-13T22:22:14.598Z,24.30
2018-08-13T22:24:54.211Z,24.30
2018-08-13T22:27:22.463Z,24.30
2018-08-13T22:29:50.697Z,24.30
2018-08-13T22:32:18.979Z,24.30
2018-08-13T22:34:47.222Z,24.20
2018-08-13T22:37:15.415Z,24.10
2018-08-13T22:39:44.610Z,24.10
2018-08-13T22:42:12.951Z,24.20
2018-08-13T22:44:41.176Z,24.20
2018-08-13T22:47:10.231Z,24.20
2018-08-13T22:49:38.590Z,24.20
2018-08-13T22:52:07.143Z,24.20
2018-08-13T22:54:35.648Z,24.20
2018-08-13T22:57:04.341Z,24.20
2018-08-13T22:59:32.598Z,24.20
2018-08-13T23:02:00.854Z,24.20
2018-08-13T23:04:29.049Z,24.10
2018-08-13T23:06:57.272Z,24.10
2018-08-13T23:09:25.503Z,24.10
2018-08-13T23:11:53.711Z,24.00
2018-08-13T23:14:22.013Z,24.10
2018-08-13T23:16:50.315Z,24.00
2018-08-13T23:19:18.504Z,24.00
2018-08-13T23:21:47.020Z,24.00
2018-08-13T23:24:15.326Z,23.90
2018-08-13T23:26:43.787Z,23.90
2018-08-13T23:29:12.365Z,23.90
2018-08-13T23:31:40.645Z,23.80
2018-08-13T23:34:09.054Z,23.80
2018-08-13T23:36:37.313Z,23.70
2018-08-13T23:39:09.274Z,23.70
2018-08-13T23:41:37.508Z,23.70
2018-08-13T23:44:06.018Z,23.60
2018-08-13T23:46:34.239Z,23.60
2018-08-13T23:49:02.492Z,23.70
2018-08-13T23:51:31.076Z,23.60
2018-08-13T23:53:59.269Z,23.60
2018-08-13T23:56:27.477Z,23.60
2018-08-13T23:58:55.706Z,23.60
